Time;durP1;ratioP1;P1;durP2;ratioP2;P2;SDS_P1;SDS_P2;PMS_P1;PMS_P2;Temp;Humidity;BMP_temperature;BMP_pressure;BME280_temperature;BME280_humidity;BME280_pressure;Samples;Min_cycle;Max_cycle;Signal;HPM_P1;HPM_P2
2023/05/30 00:01:54;;;;;;;13.77;0.70;;;;;;;12.41;73.68;102422.72;7349405;19;20006;-65
2023/05/30 00:04:23;;;;;;;12.27;1.35;;;;;;;12.40;74.15;102419.22;7356207;19;20014;-64
2023/05/30 00:06:51;;;;;;;9.10;0.82;;;;;;;12.40;73.87;102431.59;7353497;19;20087;-65
2023/05/30 00:09:19;;;;;;;12.05;0.85;;;;;;;12.29;74.12;102426.38;7353926;19;20653;-67
2023/05/30 00:11:48;;;;;;;10.57;1.00;;;;;;;12.33;74.55;102422.50;7354331;19;20026;-66
2023/05/30 00:14:20;;;;;;;16.52;1.00;;;;;;;12.33;74.42;102425.16;7355124;19;20010;-64
2023/05/30 00:16:47;;;;;;;10.32;0.90;;;;;;;12.39;75.14;102428.09;7350901;19;20889;-66
2023/05/30 00:19:15;;;;;;;11.35;0.85;;;;;;;12.43;74.56;102429.56;7354600;19;20044;-65
2023/05/30 00:21:45;;;;;;;14.52;1.90;;;;;;;12.44;74.08;102425.94;7354850;19;20593;-65
2023/05/30 00:24:13;;;;;;;9.95;1.10;;;;;;;12.43;74.12;102426.06;7353401;19;20007;-65
2023/05/30 00:26:43;;;;;;;12.77;0.80;;;;;;;12.46;74.53;102431.09;7353645;19;20027;-64
2023/05/30 00:29:11;;;;;;;6.32;0.80;;;;;;;12.46;73.64;102433.72;7353540;19;20022;-67
2023/05/30 00:31:38;;;;;;;7.93;0.60;;;;;;;12.42;74.39;102442.88;7352144;19;20496;-65
2023/05/30 00:34:06;;;;;;;12.15;1.00;;;;;;;12.37;74.14;102437.13;7352480;19;20014;-65
2023/05/30 00:36:34;;;;;;;15.55;0.70;;;;;;;12.31;74.65;102442.91;7353975;19;20015;-66
2023/05/30 00:39:02;;;;;;;8.57;0.70;;;;;;;12.29;74.71;102434.28;7352855;19;20014;-64
2023/05/30 00:41:29;;;;;;;14.05;1.17;;;;;;;12.36;74.84;102438.09;7354681;19;20010;-65
2023/05/30 00:43:56;;;;;;;7.93;1.02;;;;;;;12.39;74.44;102432.56;7350897;19;20724;-65
2023/05/30 00:46:25;;;;;;;11.05;0.90;;;;;;;12.40;74.46;102434.22;7351049;19;20015;-65
2023/05/30 00:48:52;;;;;;;13.27;1.00;;;;;;;12.41;74.04;102430.63;7350269;19;20013;-66
2023/05/30 00:51:20;;;;;;;10.77;0.77;;;;;;;12.42;74.09;102437.59;7354296;19;20034;-65
2023/05/30 00:53:48;;;;;;;15.65;0.88;;;;;;;12.39;74.32;102438.66;7353340;19;20042;-65
2023/05/30 00:56:16;;;;;;;13.93;1.05;;;;;;;12.40;74.16;102427.16;7353781;19;20037;-65
2023/05/30 00:58:45;;;;;;;11.35;0.93;;;;;;;12.43;74.33;102432.19;7352230;19;20013;-64
2023/05/30 01:01:13;;;;;;;10.65;1.23;;;;;;;12.44;74.48;102444.41;7351930;19;20028;-69
2023/05/30 01:03:41;;;;;;;11.07;1.05;;;;;;;12.42;74.73;102438.44;7351224;19;20126;-64
2023/05/30 01:06:09;;;;;;;7.85;1.05;;;;;;;12.37;74.59;102435.31;7356175;19;20010;-65
2023/05/30 01:08:37;;;;;;;12.43;1.17;;;;;;;12.34;74.78;102432.91;7354029;19;20015;-65
2023/05/30 01:11:11;;;;;;;18.98;1.55;;;;;;;12.37;74.93;102442.41;7353725;19;20018;-65
2023/05/30 01:14:01;;;;;;;11.20;1.20;;;;;;;12.34;74.65;102432.91;7355937;19;20025;-66
2023/05/30 01:16:34;;;;;;;8.13;0.90;;;;;;;12.37;74.77;102432.69;7356385;19;20014;-65
2023/05/30 01:19:21;;;;;;;14.98;1.73;;;;;;;12.37;74.88;102426.56;7360110;19;20018;-66
2023/05/30 01:21:54;;;;;;;7.35;0.95;;;;;;;12.36;75.15;102428.38;7359904;19;20051;-64
2023/05/30 01:24:34;;;;;;;10.00;0.98;;;;;;;12.37;75.16;102432.69;7356851;19;20014;-65
2023/05/30 01:27:17;;;;;;;7.93;1.40;;;;;;;12.38;75.60;102438.81;7359810;19;20018;-66
2023/05/30 01:29:44;;;;;;;7.72;0.88;;;;;;;12.38;74.74;102430.88;7360326;19;20018;-66
2023/05/30 01:32:12;;;;;;;13.40;1.15;;;;;;;12.36;74.90;102427.53;7353691;19;20012;-66
2023/05/30 01:34:39;;;;;;;6.50;1.23;;;;;;;12.35;74.71;102431.97;7359740;19;20049;-65
2023/05/30 01:37:06;;;;;;;10.13;1.10;;;;;;;12.43;74.88;102436.63;7357149;19;20047;-64
2023/05/30 01:39:34;;;;;;;8.00;1.00;;;;;;;12.40;75.20;102432.44;7360889;19;20074;-65
2023/05/30 01:42:08;;;;;;;13.70;1.20;;;;;;;12.39;75.17;102432.56;7357548;19;20011;-66
2023/05/30 01:44:42;;;;;;;9.65;1.38;;;;;;;12.37;75.24;102434.50;7358782;19;20026;-66
2023/05/30 01:47:14;;;;;;;12.73;1.17;;;;;;;12.35;75.16;102429.31;7353920;19;20423;-63
2023/05/30 01:49:53;;;;;;;8.02;0.85;;;;;;;12.30;75.17;102436.78;7356933;19;20015;-66
2023/05/30 01:52:24;;;;;;;13.10;1.23;;;;;;;12.32;74.82;102437.50;7359295;19;20064;-65
2023/05/30 01:54:56;;;;;;;9.93;1.10;;;;;;;12.32;75.32;102436.66;7358065;19;20007;-66
2023/05/30 01:57:25;;;;;;;9.23;1.23;;;;;;;12.31;75.18;102437.63;7359669;19;20041;-65
2023/05/30 01:59:53;;;;;;;9.50;0.93;;;;;;;12.31;75.27;102440.25;7355926;19;20311;-64
2023/05/30 02:02:20;;;;;;;8.80;0.80;;;;;;;12.31;75.57;102443.75;7354220;19;20041;-67
2023/05/30 02:04:48;;;;;;;7.53;1.13;;;;;;;12.33;75.76;102440.97;7357159;19;20728;-65
2023/05/30 02:07:15;;;;;;;14.68;1.10;;;;;;;12.34;75.61;102438.19;7356633;19;20010;-65
2023/05/30 02:09:44;;;;;;;12.77;1.27;;;;;;;12.33;74.75;102428.63;7353733;19;20095;-65
2023/05/30 02:12:11;;;;;;;6.97;1.10;;;;;;;12.30;75.35;102439.41;7357738;19;20041;-66
2023/05/30 02:14:38;;;;;;;9.93;1.55;;;;;;;12.29;75.34;102437.72;7357278;19;20038;-66
2023/05/30 02:17:06;;;;;;;11.73;1.30;;;;;;;12.36;75.05;102432.81;7353644;19;20048;-69
2023/05/30 02:19:33;;;;;;;11.27;1.20;;;;;;;12.30;74.68;102428.00;7360091;19;20011;-65
2023/05/30 02:22:00;;;;;;;14.77;1.25;;;;;;;12.30;75.14;102431.50;7357559;19;20014;-65
2023/05/30 02:24:27;;;;;;;10.57;1.13;;;;;;;12.25;75.06;102430.19;7352987;19;20014;-65
2023/05/30 02:26:55;;;;;;;11.85;1.52;;;;;;;12.25;75.23;102438.94;7354713;19;20048;-64
2023/05/30 02:29:22;;;;;;;8.13;1.20;;;;;;;12.24;75.22;102436.47;7357733;19;20014;-65
2023/05/30 02:31:49;;;;;;;11.98;1.80;;;;;;;12.18;75.58;102436.94;7352710;19;20027;-65
2023/05/30 02:34:16;;;;;;;9.05;1.10;;;;;;;12.20;76.11;102441.13;7357135;19;20418;-65
2023/05/30 02:36:44;;;;;;;8.35;1.02;;;;;;;12.17;75.79;102438.75;7357000;19;20014;-66
2023/05/30 02:39:11;;;;;;;12.77;1.20;;;;;;;12.11;76.29;102451.56;7356909;19;20019;-65
2023/05/30 02:41:38;;;;;;;11.13;1.05;;;;;;;12.07;76.39;102443.06;7356220;19;20018;-65
2023/05/30 02:44:06;;;;;;;12.52;1.30;;;;;;;12.00;76.57;102442.72;7355376;19;20018;-65
2023/05/30 02:46:36;;;;;;;7.70;1.38;;;;;;;11.97;76.67;102445.63;7354460;19;20432;-64
2023/05/30 02:49:03;;;;;;;14.18;1.65;;;;;;;11.88;76.83;102446.34;7352483;19;20011;-64
2023/05/30 02:51:31;;;;;;;12.27;1.60;;;;;;;11.90;77.08;102438.28;7356957;19;20019;-65
2023/05/30 02:53:58;;;;;;;17.13;2.50;;;;;;;11.89;77.06;102442.72;7357541;19;20020;-66
2023/05/30 02:56:25;;;;;;;9.80;1.38;;;;;;;11.86;76.99;102439.50;7356496;19;20047;-65
2023/05/30 02:58:54;;;;;;;8.32;1.08;;;;;;;11.86;77.15;102439.50;7355736;19;20382;-64
2023/05/30 03:01:21;;;;;;;8.10;0.95;;;;;;;11.89;77.28;102441.88;7352828;19;20010;-64
2023/05/30 03:03:48;;;;;;;13.30;1.95;;;;;;;11.82;77.42;102448.63;7354285;19;20007;-65
2023/05/30 03:06:15;;;;;;;9.23;1.30;;;;;;;11.85;77.42;102437.81;7354659;19;20019;-66
2023/05/30 03:08:42;;;;;;;10.25;1.02;;;;;;;11.88;77.37;102448.97;7355489;19;20022;-65
2023/05/30 03:11:10;;;;;;;13.20;1.35;;;;;;;11.89;77.14;102447.16;7355927;19;20451;-64
2023/05/30 03:13:39;;;;;;;11.73;1.30;;;;;;;11.91;77.06;102450.53;7356097;19;20607;-65
2023/05/30 03:16:07;;;;;;;8.93;1.50;;;;;;;11.94;77.66;102450.28;7354347;19;21592;-65
2023/05/30 03:18:34;;;;;;;13.38;1.10;;;;;;;11.96;77.16;102443.09;7353634;19;20022;-66
2023/05/30 03:21:01;;;;;;;10.43;1.35;;;;;;;12.02;77.18;102452.31;7355130;19;20022;-66
2023/05/30 03:23:28;;;;;;;16.20;1.20;;;;;;;12.04;77.17;102442.50;7354406;19;20034;-65
2023/05/30 03:25:55;;;;;;;10.73;2.38;;;;;;;12.06;77.34;102451.09;7357364;19;20390;-65
2023/05/30 03:28:23;;;;;;;9.48;1.95;;;;;;;12.10;76.32;102460.44;7354771;19;20126;-64
2023/05/30 03:30:50;;;;;;;14.32;1.00;;;;;;;12.07;76.42;102453.63;7352556;19;20022;-67
2023/05/30 03:33:17;;;;;;;11.30;1.25;;;;;;;12.05;76.61;102457.34;7353789;19;20832;-65
2023/05/30 03:35:45;;;;;;;12.23;1.23;;;;;;;11.98;76.76;102455.22;7350489;19;20113;-65
2023/05/30 03:38:12;;;;;;;8.70;1.17;;;;;;;11.99;76.97;102459.50;7354912;19;20372;-64
2023/05/30 03:40:39;;;;;;;9.65;1.65;;;;;;;12.02;77.08;102453.16;7354519;19;20019;-63
2023/05/30 03:43:06;;;;;;;7.03;1.13;;;;;;;12.00;76.67;102455.91;7352954;19;20014;-66
2023/05/30 03:45:33;;;;;;;7.13;0.70;;;;;;;12.04;76.79;102459.13;7352496;19;20458;-65
2023/05/30 03:48:00;;;;;;;8.88;1.00;;;;;;;12.06;76.66;102457.22;7352828;19;20759;-67
2023/05/30 03:50:30;;;;;;;10.65;1.30;;;;;;;12.04;76.57;102463.59;7355244;19;20042;-66
2023/05/30 03:52:57;;;;;;;11.75;1.65;;;;;;;11.95;76.94;102458.06;7354423;19;20815;-65
2023/05/30 03:55:24;;;;;;;9.70;0.80;;;;;;;12.03;77.14;102451.38;7354866;19;20049;-65
2023/05/30 03:57:52;;;;;;;9.93;1.63;;;;;;;12.09;76.77;102467.53;7353159;19;20511;-65
2023/05/30 04:00:19;;;;;;;16.08;1.48;;;;;;;12.02;77.08;102466.34;7352966;19;21074;-65
2023/05/30 04:02:47;;;;;;;11.27;1.20;;;;;;;11.98;77.11;102468.41;7351978;19;20014;-68
2023/05/30 04:05:14;;;;;;;11.57;1.65;;;;;;;12.00;77.17;102466.47;7350516;19;20014;-65
2023/05/30 04:07:41;;;;;;;11.07;1.00;;;;;;;12.00;77.24;102470.91;7351379;19;20052;-65
2023/05/30 04:10:09;;;;;;;9.57;1.38;;;;;;;12.04;77.23;102466.25;7353171;19;20017;-66
2023/05/30 04:12:37;;;;;;;12.18;1.17;;;;;;;12.09;76.67;102450.88;7354164;19;20014;-65
2023/05/30 04:15:05;;;;;;;15.60;1.15;;;;;;;12.10;76.93;102463.09;7353338;19;20410;-65
2023/05/30 04:17:32;;;;;;;9.32;0.82;;;;;;;12.15;76.53;102463.56;7350300;19;20026;-65
2023/05/30 04:20:00;;;;;;;8.30;0.90;;;;;;;12.18;76.41;102463.34;7353263;19;20014;-65
2023/05/30 04:22:27;;;;;;;10.32;1.27;;;;;;;12.21;76.20;102474.47;7352851;19;20114;-66
2023/05/30 04:24:55;;;;;;;11.35;1.27;;;;;;;12.27;76.06;102457.31;7351491;19;20026;-66
2023/05/30 04:27:22;;;;;;;9.68;1.08;;;;;;;12.20;76.19;102462.22;7353006;19;20060;-65
2023/05/30 04:29:50;;;;;;;11.77;2.03;;;;;;;12.26;76.17;102469.66;7351435;19;20006;-64
2023/05/30 04:32:17;;;;;;;14.70;1.45;;;;;;;12.25;75.90;102470.63;7350143;19;20095;-65
2023/05/30 04:34:45;;;;;;;8.63;1.00;;;;;;;12.25;75.89;102465.34;7353372;19;20006;-64
2023/05/30 04:37:17;;;;;;;8.13;1.50;;;;;;;12.31;76.38;102477.22;7350799;19;20430;-64
2023/05/30 04:39:44;;;;;;;10.15;1.30;;;;;;;12.35;75.99;102478.63;7355872;19;20079;-65
2023/05/30 04:42:12;;;;;;;10.30;1.60;;;;;;;12.37;75.24;102469.66;7354980;19;20365;-65
2023/05/30 04:44:39;;;;;;;7.07;0.98;;;;;;;12.40;75.45;102476.47;7352165;19;20019;-64
2023/05/30 04:47:08;;;;;;;9.68;1.30;;;;;;;12.41;75.56;102473.72;7349684;19;20106;-65
2023/05/30 04:49:39;;;;;;;8.73;1.08;;;;;;;12.48;75.12;102468.78;7360723;19;20010;-64
2023/05/30 04:52:07;;;;;;;5.22;0.85;;;;;;;12.48;74.83;102481.13;7361320;19;20110;-67
2023/05/30 04:54:34;;;;;;;9.80;0.90;;;;;;;12.47;74.63;102487.38;7361912;19;20018;-65
2023/05/30 04:57:02;;;;;;;9.82;1.27;;;;;;;12.44;74.53;102493.75;7359123;19;20483;-65
2023/05/30 04:59:29;;;;;;;8.55;1.45;;;;;;;12.50;74.62;102489.75;7361221;19;20014;-65
2023/05/30 05:01:57;;;;;;;11.07;1.10;;;;;;;12.46;74.89;102485.69;7355183;19;20018;-65
2023/05/30 05:04:24;;;;;;;13.82;1.10;;;;;;;12.46;74.85;102497.09;7357905;19;20017;-65
2023/05/30 05:06:51;;;;;;;9.38;1.10;;;;;;;12.48;75.07;102494.34;7359507;19;20051;-66
2023/05/30 05:09:20;;;;;;;8.70;1.00;;;;;;;12.42;74.46;102485.09;7359100;19;20110;-66
2023/05/30 05:11:48;;;;;;;4.95;1.05;;;;;;;12.31;74.37;102485.13;7359496;19;20082;-65
2023/05/30 05:14:16;;;;;;;8.02;1.17;;;;;;;12.34;74.59;102482.25;7357041;19;20093;-65
2023/05/30 05:16:43;;;;;;;9.63;1.02;;;;;;;12.39;74.53;102496.75;7356824;19;20026;-66
2023/05/30 05:19:10;;;;;;;8.73;1.00;;;;;;;12.43;74.42;102505.28;7359274;19;20045;-65
2023/05/30 05:21:38;;;;;;;4.38;0.98;;;;;;;12.44;74.64;102502.50;7359776;19;20018;-66
2023/05/30 05:24:07;;;;;;;8.40;1.15;;;;;;;12.51;74.72;102494.06;7357538;19;20018;-65
2023/05/30 05:26:35;;;;;;;7.43;1.10;;;;;;;12.50;74.75;102498.53;7359071;19;20015;-65
2023/05/30 05:29:02;;;;;;;14.93;1.02;;;;;;;12.58;74.99;102495.28;7360091;19;20022;-66
2023/05/30 05:31:32;;;;;;;9.93;1.08;;;;;;;12.65;74.12;102513.13;7357079;19;20660;-66
2023/05/30 05:34:00;;;;;;;5.63;0.70;;;;;;;12.61;73.75;102510.84;7358120;19;20006;-65
2023/05/30 05:36:27;;;;;;;9.20;1.25;;;;;;;12.66;73.53;102513.97;7358287;19;20089;-65
2023/05/30 05:38:54;;;;;;;6.18;1.10;;;;;;;12.68;73.78;102509.41;7358826;19;20019;-65
2023/05/30 05:41:22;;;;;;;8.10;0.95;;;;;;;12.69;74.44;102511.94;7359833;19;20440;-64
2023/05/30 05:43:49;;;;;;;9.25;1.13;;;;;;;12.72;74.27;102509.03;7357708;19;20018;-65
2023/05/30 05:46:16;;;;;;;12.32;1.80;;;;;;;12.75;73.20;102527.25;7355941;19;20819;-65
2023/05/30 05:48:43;;;;;;;8.27;1.20;;;;;;;12.68;73.12;102519.97;7356187;19;20384;-65
2023/05/30 05:51:11;;;;;;;6.88;0.80;;;;;;;12.53;73.69;102529.97;7359873;19;20018;-65
2023/05/30 05:53:38;;;;;;;8.25;1.27;;;;;;;12.47;73.93;102524.34;7359730;19;20033;-65
2023/05/30 05:56:06;;;;;;;5.30;0.85;;;;;;;12.57;74.04;102530.56;7359018;19;20022;-64
2023/05/30 05:58:33;;;;;;;7.75;1.17;;;;;;;12.62;73.74;102526.59;7357078;19;20102;-65
2023/05/30 06:01:00;;;;;;;9.50;1.40;;;;;;;12.69;74.18;102530.41;7355478;19;20014;-65
2023/05/30 06:03:28;;;;;;;9.80;1.42;;;;;;;12.78;73.25;102524.38;7358484;19;20015;-66
2023/05/30 06:05:56;;;;;;;8.30;1.02;;;;;;;12.82;73.22;102530.25;7363469;19;20014;-66
2023/05/30 06:08:23;;;;;;;7.95;1.30;;;;;;;12.85;72.78;102537.91;7363019;19;20021;-65
2023/05/30 06:10:51;;;;;;;9.25;1.55;;;;;;;12.84;73.03;102542.38;7367845;19;20035;-67
2023/05/30 06:13:18;;;;;;;5.65;1.00;;;;;;;12.86;72.59;102544.88;7363000;19;20539;-66
2023/05/30 06:15:48;;;;;;;14.82;1.70;;;;;;;12.70;73.12;102542.63;7364868;19;20038;-66
2023/05/30 06:18:15;;;;;;;4.68;0.77;;;;;;;12.69;73.19;102543.63;7362077;19;20275;-65
2023/05/30 06:20:42;;;;;;;7.35;0.90;;;;;;;12.59;72.95;102547.13;7365532;19;20018;-66
2023/05/30 06:23:10;;;;;;;6.53;1.15;;;;;;;12.60;72.82;102546.97;7365160;19;21209;-66
2023/05/30 06:25:37;;;;;;;6.38;1.05;;;;;;;12.49;73.60;102551.47;7368303;19;20014;-65
2023/05/30 06:28:04;;;;;;;5.53;0.80;;;;;;;12.57;73.94;102551.69;7365593;19;20011;-66
2023/05/30 06:30:31;;;;;;;8.32;1.42;;;;;;;12.67;73.47;102563.19;7363881;19;20018;-66
2023/05/30 06:32:59;;;;;;;6.57;0.98;;;;;;;12.73;72.85;102566.19;7361023;19;20627;-65
2023/05/30 06:35:26;;;;;;;7.55;1.02;;;;;;;12.65;72.87;102565.09;7366830;19;20030;-66
2023/05/30 06:37:56;;;;;;;8.60;1.13;;;;;;;12.65;72.95;102565.94;7364735;19;20041;-64
2023/05/30 06:40:23;;;;;;;11.63;0.90;;;;;;;12.69;73.22;102566.56;7364466;19;20475;-66
2023/05/30 06:42:50;;;;;;;14.07;0.85;;;;;;;12.74;72.28;102567.88;7361166;19;20011;-65
2023/05/30 06:45:17;;;;;;;11.50;1.38;;;;;;;12.80;72.21;102563.84;7362442;19;20015;-65
2023/05/30 06:47:46;;;;;;;9.90;0.82;;;;;;;12.74;71.90;102561.75;7362333;19;20045;-65
2023/05/30 06:50:14;;;;;;;8.20;1.15;;;;;;;12.83;72.09;102569.75;7365536;19;20015;-64
2023/05/30 06:52:41;;;;;;;8.57;1.83;;;;;;;12.85;72.32;102582.81;7362036;19;20022;-65
2023/05/30 06:55:08;;;;;;;10.00;1.35;;;;;;;12.88;71.82;102569.38;7364847;19;20022;-65
2023/05/30 06:57:37;;;;;;;8.07;1.00;;;;;;;12.88;71.01;102571.19;7360324;19;20018;-66
2023/05/30 07:00:05;;;;;;;9.27;1.63;;;;;;;12.92;71.19;102581.38;7361564;19;20036;-66
2023/05/30 07:02:32;;;;;;;7.70;0.90;;;;;;;12.89;70.89;102562.28;7361650;19;20017;-67
2023/05/30 07:05:00;;;;;;;7.38;2.00;;;;;;;12.77;71.21;102583.44;7364991;19;20026;-65
2023/05/30 07:07:27;;;;;;;7.25;0.90;;;;;;;12.65;71.39;102575.66;7362581;19;20018;-65
2023/05/30 07:09:55;;;;;;;9.27;1.13;;;;;;;12.73;71.44;102562.69;7362191;19;20031;-66
2023/05/30 07:12:23;;;;;;;8.70;1.10;;;;;;;12.75;70.92;102569.53;7362109;19;20021;-66
2023/05/30 07:14:52;;;;;;;7.78;0.93;;;;;;;12.76;70.53;102560.63;7363334;19;20418;-64
2023/05/30 07:17:19;;;;;;;7.28;1.13;;;;;;;12.84;70.38;102552.09;7361187;19;20010;-66
2023/05/30 07:19:47;;;;;;;8.00;0.95;;;;;;;12.93;70.38;102566.34;7364335;19;20471;-65
2023/05/30 07:22:14;;;;;;;10.75;1.25;;;;;;;12.82;70.33;102565.44;7362151;19;20014;-66
2023/05/30 07:24:42;;;;;;;10.05;0.70;;;;;;;12.95;70.38;102561.81;7362307;19;20098;-65
2023/05/30 07:27:09;;;;;;;8.35;1.10;;;;;;;13.08;69.70;102560.66;7365324;19;20700;-66
2023/05/30 07:29:37;;;;;;;9.23;0.88;;;;;;;13.07;69.31;102553.69;7363353;19;20400;-66
2023/05/30 07:32:04;;;;;;;11.15;1.27;;;;;;;13.20;69.53;102550.94;7360075;19;20089;-64
2023/05/30 07:34:32;;;;;;;7.68;1.00;;;;;;;13.50;68.21;102542.22;7361031;19;20016;-66
2023/05/30 07:36:59;;;;;;;10.07;0.70;;;;;;;13.70;67.39;102555.44;7362240;19;20029;-66
2023/05/30 07:39:26;;;;;;;8.48;0.90;;;;;;;13.69;67.26;102561.69;7359462;19;20018;-65
2023/05/30 07:41:54;;;;;;;6.60;0.93;;;;;;;13.52;67.76;102550.84;7359490;19;20010;-64
2023/05/30 07:44:22;;;;;;;7.93;1.08;;;;;;;13.47;67.73;102547.75;7354189;19;20022;-66
2023/05/30 07:46:51;;;;;;;5.78;0.90;;;;;;;13.75;67.74;102546.28;7356484;19;21925;-66
2023/05/30 07:49:20;;;;;;;6.18;0.73;;;;;;;14.10;66.73;102550.22;7356324;19;20099;-65
2023/05/30 07:51:48;;;;;;;9.02;1.05;;;;;;;14.13;65.73;102544.63;7362051;19;20480;-65
2023/05/30 07:54:16;;;;;;;5.40;1.00;;;;;;;14.01;66.27;102543.06;7361072;19;20562;-67
2023/05/30 07:56:43;;;;;;;7.07;1.52;;;;;;;14.14;66.83;102550.78;7358075;19;20522;-65
2023/05/30 07:59:11;;;;;;;6.70;1.00;;;;;;;14.34;66.33;102546.38;7324114;19;20046;-65
2023/05/30 08:01:38;;;;;;;8.10;1.33;;;;;;;14.53;65.03;102549.13;7339706;19;20804;-67
2023/05/30 08:04:05;;;;;;;8.00;0.82;;;;;;;14.59;64.41;102547.72;7339333;19;20720;-65
2023/05/30 08:06:34;;;;;;;10.82;1.05;;;;;;;14.71;64.01;102547.50;7342584;19;20537;-65
2023/05/30 08:09:02;;;;;;;9.52;0.95;;;;;;;14.85;62.92;102557.69;7337989;19;20026;-65
2023/05/30 08:11:30;;;;;;;7.93;1.00;;;;;;;14.79;63.04;102550.28;7343235;19;20015;-65
2023/05/30 08:13:57;;;;;;;10.20;1.45;;;;;;;14.78;63.43;102558.41;7339536;19;20121;-66
2023/05/30 08:16:24;;;;;;;12.55;1.05;;;;;;;14.68;63.40;102552.25;7339861;19;20968;-65
2023/05/30 08:18:52;;;;;;;7.68;1.15;;;;;;;14.61;63.99;102561.69;7341974;19;20437;-65
2023/05/30 08:21:19;;;;;;;17.13;1.75;;;;;;;14.47;64.56;102555.81;7345353;19;20022;-65
2023/05/30 08:23:47;;;;;;;14.27;2.13;;;;;;;14.47;65.37;102553.16;7345936;19;20148;-66
2023/05/30 08:26:15;;;;;;;9.18;1.48;;;;;;;14.45;64.78;102568.34;7343861;19;20025;-64
2023/05/30 08:28:42;;;;;;;8.85;0.98;;;;;;;14.41;65.69;102552.88;7348756;19;20022;-66
2023/05/30 08:31:09;;;;;;;6.50;1.15;;;;;;;14.48;65.29;102546.88;7335782;19;20051;-65
2023/05/30 08:33:37;;;;;;;9.93;1.20;;;;;;;14.59;64.16;102545.94;7347224;19;20044;-66
2023/05/30 08:36:04;;;;;;;6.72;0.73;;;;;;;14.48;64.29;102538.09;7344783;19;20014;-65
2023/05/30 08:38:32;;;;;;;8.00;1.23;;;;;;;14.47;64.29;102547.03;7342955;19;20022;-66
2023/05/30 08:40:59;;;;;;;10.18;1.20;;;;;;;14.52;64.30;102553.59;7345884;19;20425;-65
2023/05/30 08:43:27;;;;;;;7.85;1.02;;;;;;;14.54;64.34;102553.44;7345878;19;21051;-66
2023/05/30 08:45:55;;;;;;;9.77;2.53;;;;;;;14.55;64.50;102549.81;7344013;19;20018;-64
2023/05/30 08:48:25;;;;;;;10.93;1.13;;;;;;;14.72;64.05;102548.34;7344075;19;20006;-65
2023/05/30 08:50:52;;;;;;;9.00;1.23;;;;;;;14.92;63.55;102547.38;7354556;19;20010;-65
2023/05/30 08:53:26;;;;;;;10.98;0.73;;;;;;;15.15;63.29;102550.59;7355568;19;20015;-65
2023/05/30 08:55:59;;;;;;;10.65;1.20;;;;;;;15.35;61.36;102542.47;7357677;19;20455;-66
2023/05/30 08:58:33;;;;;;;6.72;1.10;;;;;;;15.38;61.44;102544.88;7359330;19;20018;-65
2023/05/30 09:01:02;;;;;;;8.43;0.95;;;;;;;15.36;61.10;102538.84;7354129;19;20034;-66
2023/05/30 09:03:31;;;;;;;8.68;1.08;;;;;;;15.45;60.65;102537.16;7359688;19;20309;-66
2023/05/30 09:06:00;;;;;;;9.63;1.02;;;;;;;15.49;60.56;102538.53;7356984;19;20018;-65
2023/05/30 09:08:29;;;;;;;9.13;0.80;;;;;;;15.55;60.77;102543.31;7358229;19;20342;-65
2023/05/30 09:10:58;;;;;;;8.05;0.80;;;;;;;15.76;60.48;102540.47;7357716;19;20035;-67
2023/05/30 09:13:26;;;;;;;6.30;0.82;;;;;;;15.92;59.74;102531.91;7366875;19;20014;-66
2023/05/30 09:15:53;;;;;;;8.13;0.88;;;;;;;15.92;59.21;102540.69;7363022;19;20052;-66
2023/05/30 09:18:21;;;;;;;9.15;1.08;;;;;;;15.58;59.63;102532.44;7361322;19;20483;-65
2023/05/30 09:20:50;;;;;;;5.00;1.13;;;;;;;15.60;60.03;102532.25;7363672;19;20114;-65
2023/05/30 09:23:18;;;;;;;7.05;1.30;;;;;;;15.63;59.77;102527.53;7361436;19;20018;-65
2023/05/30 09:25:48;;;;;;;9.73;1.20;;;;;;;15.71;59.56;102529.44;7359185;19;20027;-65
2023/05/30 09:28:23;;;;;;;9.55;1.20;;;;;;;15.86;59.38;102537.78;7361095;19;20230;-65
2023/05/30 09:30:56;;;;;;;18.90;1.48;;;;;;;16.02;58.74;102530.03;7352271;19;20028;-65
2023/05/30 09:33:34;;;;;;;9.13;1.20;;;;;;;16.11;58.78;102527.34;7358333;19;20578;-64
2023/05/30 09:36:01;;;;;;;7.18;0.98;;;;;;;16.24;57.54;102519.88;7358680;19;20876;-65
2023/05/30 09:38:29;;;;;;;6.90;1.00;;;;;;;16.22;57.46;102519.19;7356849;19;20200;-66
2023/05/30 09:41:02;;;;;;;8.55;0.80;;;;;;;16.28;56.98;102533.69;7358734;19;20016;-65
2023/05/30 09:43:33;;;;;;;11.88;0.90;;;;;;;16.21;57.46;102520.16;7362060;19;20430;-66
2023/05/30 09:46:03;;;;;;;9.30;1.15;;;;;;;16.29;57.43;102518.59;7360421;19;20487;-66
2023/05/30 09:48:31;;;;;;;7.15;0.70;;;;;;;16.37;57.28;102531.97;7359984;19;20444;-65
2023/05/30 09:51:00;;;;;;;8.40;0.85;;;;;;;16.40;57.18;102521.91;7362802;19;20014;-65
2023/05/30 09:53:30;;;;;;;9.30;1.05;;;;;;;16.47;57.03;102532.75;7360728;19;20027;-66
2023/05/30 09:55:58;;;;;;;5.57;0.90;;;;;;;16.59;56.50;102535.09;7366577;19;20018;-66
2023/05/30 09:58:25;;;;;;;6.60;1.08;;;;;;;16.64;56.46;102534.63;7360724;19;20086;-66
2023/05/30 10:00:57;;;;;;;8.52;0.70;;;;;;;16.68;55.86;102530.69;7356080;19;20057;-66
2023/05/30 10:03:31;;;;;;;7.03;1.48;;;;;;;16.62;56.36;102541.91;7359835;19;20082;-66
2023/05/30 10:06:01;;;;;;;5.65;0.93;;;;;;;16.31;57.36;102511.28;7362966;19;20297;-65
2023/05/30 10:08:29;;;;;;;5.78;0.75;;;;;;;16.35;57.20;102513.53;7362699;19;20010;-65
2023/05/30 10:10:57;;;;;;;5.85;1.10;;;;;;;16.29;57.63;102519.44;7331052;19;20018;-65
2023/05/30 10:13:24;;;;;;;4.80;1.15;;;;;;;16.41;57.81;102520.88;7352406;19;20633;-66
2023/05/30 10:15:52;;;;;;;9.60;0.80;;;;;;;16.36;57.17;102525.81;7350609;19;20025;-66
2023/05/30 10:18:22;;;;;;;8.07;1.05;;;;;;;16.38;57.45;102523.84;7356183;19;20658;-66
2023/05/30 10:20:50;;;;;;;6.55;0.90;;;;;;;16.37;57.77;102508.88;7355471;19;20018;-65
2023/05/30 10:23:20;;;;;;;7.95;1.10;;;;;;;16.50;57.74;102517.34;7357671;19;20018;-66
2023/05/30 10:25:54;;;;;;;6.88;0.80;;;;;;;16.76;56.86;102521.97;7357899;19;20327;-66
2023/05/30 10:28:28;;;;;;;13.50;1.00;;;;;;;16.73;56.70;102525.75;7357017;19;20585;-65
2023/05/30 10:30:56;;;;;;;7.90;0.60;;;;;;;16.76;56.56;102516.66;7356732;19;20015;-66
2023/05/30 10:33:30;;;;;;;10.75;1.50;;;;;;;16.78;56.92;102520.81;7358570;19;20025;-65
2023/05/30 10:36:18;;;;;;;9.82;0.77;;;;;;;16.87;56.99;102506.59;7360676;19;20009;-66
2023/05/30 10:38:57;;;;;;;6.13;1.42;;;;;;;16.98;55.83;102514.34;7359422;19;20081;-65
2023/05/30 10:41:36;;;;;;;7.57;1.17;;;;;;;17.05;55.96;102509.25;7360194;19;21320;-66
2023/05/30 10:44:32;;;;;;;5.82;0.73;;;;;;;17.16;55.81;102511.69;7358017;19;20455;-65
2023/05/30 10:47:06;;;;;;;6.65;0.88;;;;;;;17.18;55.07;102509.69;7350271;19;20018;-66
2023/05/30 10:49:36;;;;;;;4.80;0.80;;;;;;;17.16;54.79;102509.03;7356884;19;20010;-66
2023/05/30 10:52:05;;;;;;;8.63;0.70;;;;;;;17.09;55.65;102515.94;7359012;19;20011;-65
2023/05/30 10:54:35;;;;;;;6.28;0.85;;;;;;;16.88;55.93;102502.97;7358281;19;20772;-67
2023/05/30 10:57:09;;;;;;;7.32;1.10;;;;;;;16.99;56.34;102505.41;7359717;19;20051;-65
2023/05/30 10:59:36;;;;;;;9.55;0.90;;;;;;;17.07;55.64;102501.94;7362061;19;20039;-66
2023/05/30 11:02:05;;;;;;;6.13;0.80;;;;;;;17.18;55.49;102493.72;7350138;19;20018;-67
2023/05/30 11:04:37;;;;;;;6.10;0.73;;;;;;;17.22;55.41;102496.94;7356904;19;20479;-66
2023/05/30 11:07:11;;;;;;;10.65;1.08;;;;;;;17.29;56.29;102493.50;7357061;19;20029;-65
2023/05/30 11:09:41;;;;;;;7.00;2.00;;;;;;;17.43;55.47;102484.09;7358644;19;20011;-66
2023/05/30 11:12:20;;;;;;;7.93;1.38;;;;;;;17.53;55.92;102475.00;7355651;19;20022;-65
2023/05/30 11:14:55;;;;;;;10.48;1.02;;;;;;;17.63;55.49;102498.06;7357387;19;20025;-65
2023/05/30 11:17:29;;;;;;;8.98;1.38;;;;;;;17.66;55.70;102484.44;7354293;19;20032;-65
2023/05/30 11:20:06;;;;;;;8.60;1.05;;;;;;;17.48;56.11;102487.97;7366195;19;20070;-65
2023/05/30 11:22:34;;;;;;;9.30;1.23;;;;;;;17.18;56.88;102492.91;7362991;19;20640;-66
2023/05/30 11:25:08;;;;;;;6.38;0.93;;;;;;;16.92;57.28;102483.03;7359102;19;20010;-65
2023/05/30 11:27:58;;;;;;;8.05;1.58;;;;;;;17.01;57.33;102487.47;7359716;19;20488;-65
2023/05/30 11:30:26;;;;;;;5.43;0.77;;;;;;;17.04;57.39;102491.63;7359057;19;20138;-66